Time;durP1;ratioP1;P1;durP2;ratioP2;P2;SDS_P1;SDS_P2;PMS_P1;PMS_P2;Temp;Humidity;BMP_temperature;BMP_pressure;BME280_temperature;BME280_humidity;BME280_pressure;Samples;Min_cycle;Max_cycle;Signal;HPM_P1;HPM_P2
2022/04/25 00:01:15;;;;;;;0.40;0.40;;;7.00;99.90;;;;;;4968220;28;20421;-71
2022/04/25 00:03:41;;;;;;;0.73;0.73;;;7.00;99.90;;;;;;4982321;28;20054;-73
2022/04/25 00:06:07;;;;;;;0.50;0.50;;;7.10;99.90;;;;;;4967999;28;20047;-74
2022/04/25 00:08:33;;;;;;;0.40;0.40;;;7.20;99.90;;;;;;4951051;28;20065;-73
2022/04/25 00:10:58;;;;;;;0.50;0.50;;;7.20;99.90;;;;;;4967878;28;20057;-74
2022/04/25 00:13:24;;;;;;;0.45;0.45;;;7.30;99.90;;;;;;4921624;28;20047;-73
2022/04/25 00:15:52;;;;;;;0.40;0.40;;;7.30;99.90;;;;;;4968451;28;20123;-73
2022/04/25 00:18:18;;;;;;;0.52;0.52;;;7.40;99.90;;;;;;4976890;28;20077;-73
2022/04/25 00:20:44;;;;;;;0.45;0.45;;;7.40;99.90;;;;;;4951071;28;20039;-73
2022/04/25 00:23:10;;;;;;;0.50;0.50;;;7.50;99.90;;;;;;4968179;28;20043;-72
2022/04/25 00:25:36;;;;;;;0.47;0.47;;;7.50;99.90;;;;;;4952619;28;20046;-73
2022/04/25 00:28:02;;;;;;;;;;;7.50;99.90;;;;;;4951727;28;20091;-73
2022/04/25 00:30:29;;;;;;;0.63;0.63;;;7.50;99.90;;;;;;4964635;28;19918;-72
2022/04/25 00:32:56;;;;;;;1.17;0.73;;;7.60;99.90;;;;;;4959452;28;20035;-73
2022/04/25 00:35:22;;;;;;;0.52;0.52;;;7.60;99.90;;;;;;4973008;28;20050;-73
2022/04/25 00:37:48;;;;;;;;;;;7.70;99.90;;;;;;4950223;28;20043;-73
2022/04/25 00:40:15;;;;;;;0.50;0.50;;;7.70;99.90;;;;;;4957460;28;20284;-72
2022/04/25 00:42:41;;;;;;;0.50;0.50;;;7.70;99.90;;;;;;4978601;28;20164;-72
2022/04/25 00:45:11;;;;;;;0.30;0.30;;;7.70;99.90;;;;;;4962960;28;20482;-72
2022/04/25 00:47:38;;;;;;;0.50;0.50;;;7.80;99.90;;;;;;4962925;28;20055;-73
2022/04/25 00:50:05;;;;;;;0.60;0.60;;;7.80;99.90;;;;;;4945067;28;20043;-71
2022/04/25 00:52:31;;;;;;;0.40;0.40;;;7.80;99.90;;;;;;4958742;28;20149;-72
2022/04/25 00:54:58;;;;;;;0.40;0.40;;;7.90;99.90;;;;;;4943433;28;20047;-71
2022/04/25 00:57:25;;;;;;;0.50;0.50;;;7.90;99.90;;;;;;4967047;28;20034;-72
2022/04/25 00:59:52;;;;;;;0.47;0.47;;;7.80;99.90;;;;;;4958366;28;20035;-73
2022/04/25 01:02:18;;;;;;;0.70;0.70;;;7.80;99.90;;;;;;4960135;28;20047;-73
2022/04/25 01:04:43;;;;;;;0.50;0.50;;;7.80;99.90;;;;;;4960205;28;20047;-71
2022/04/25 01:07:10;;;;;;;0.60;0.60;;;7.80;99.90;;;;;;4961192;28;20073;-71
2022/04/25 01:09:35;;;;;;;0.77;0.77;;;7.70;99.90;;;;;;4967747;28;20104;-72
2022/04/25 01:12:02;;;;;;;0.50;0.50;;;7.70;99.90;;;;;;4961150;28;20050;-73
2022/04/25 01:14:28;;;;;;;1.05;0.95;;;7.70;99.90;;;;;;4942689;28;20035;-71
2022/04/25 01:16:54;;;;;;;0.50;0.50;;;7.60;99.90;;;;;;4982692;28;20038;-72
2022/04/25 01:19:20;;;;;;;0.57;0.57;;;7.60;99.90;;;;;;4946373;28;20105;-72
2022/04/25 01:22:08;;;;;;;0.50;0.50;;;7.60;99.90;;;;;;4961667;28;20046;-70
2022/04/25 01:27:18;;;;;;;0.60;0.60;;;7.10;99.90;;;;;;4961423;28;20058;-73
2022/04/25 01:29:50;;;;;;;0.50;0.50;;;7.50;99.90;;;;;;4959838;28;20039;-73
2022/04/25 01:32:17;;;;;;;0.50;0.50;;;7.60;99.90;;;;;;4961243;28;20127;-71
2022/04/25 01:34:43;;;;;;;0.55;0.55;;;7.50;99.90;;;;;;4962129;28;20342;-73
2022/04/25 01:37:10;;;;;;;;;;;7.60;99.90;;;;;;4976992;28;20046;-73
2022/04/25 01:39:38;;;;;;;0.38;0.38;;;7.50;99.90;;;;;;4949097;28;20042;-72
2022/04/25 01:42:05;;;;;;;0.52;0.52;;;7.50;99.90;;;;;;4961657;28;20384;-72
2022/04/25 01:44:31;;;;;;;0.60;0.60;;;7.40;99.90;;;;;;4963545;28;20051;-72
2022/04/25 01:46:57;;;;;;;0.60;0.60;;;7.40;99.90;;;;;;4949310;28;20542;-72
2022/04/25 01:49:23;;;;;;;1.00;1.00;;;7.30;99.90;;;;;;4956229;28;20057;-73
2022/04/25 01:51:49;;;;;;;0.60;0.60;;;7.20;99.90;;;;;;4961852;28;20483;-72
2022/04/25 01:54:26;;;;;;;1.02;0.93;;;7.20;99.90;;;;;;4963631;28;20055;-74
2022/04/25 01:56:54;;;;;;;0.50;0.50;;;7.20;99.90;;;;;;4950456;28;20421;-71
2022/04/25 01:59:20;;;;;;;1.23;1.05;;;7.20;99.90;;;;;;4964398;28;20070;-72
2022/04/25 02:01:46;;;;;;;;;;;7.20;99.90;;;;;;4965488;28;20511;-73
2022/04/25 02:04:11;;;;;;;0.50;0.50;;;7.20;99.90;;;;;;4959622;28;20024;-71
2022/04/25 02:06:37;;;;;;;0.50;0.50;;;7.40;99.90;;;;;;4964766;28;20509;-70
2022/04/25 02:09:03;;;;;;;0.50;0.50;;;7.40;99.90;;;;;;4956035;28;20507;-72
2022/04/25 02:11:31;;;;;;;0.60;0.60;;;7.40;99.90;;;;;;4964536;28;20104;-73
2022/04/25 02:13:57;;;;;;;0.60;0.60;;;7.50;99.90;;;;;;4931207;28;20039;-73
2022/04/25 02:16:24;;;;;;;0.50;0.50;;;7.50;99.90;;;;;;4959115;28;20511;-73
2022/04/25 02:18:50;;;;;;;0.40;0.40;;;7.60;99.90;;;;;;4972410;28;20043;-73
2022/04/25 02:21:16;;;;;;;0.50;0.50;;;7.60;99.90;;;;;;4969565;28;20043;-72
2022/04/25 02:23:42;;;;;;;0.82;0.82;;;7.60;99.90;;;;;;4943876;28;20092;-73
2022/04/25 02:26:09;;;;;;;1.05;1.05;;;7.60;99.90;;;;;;4965444;28;20047;-73
2022/04/25 02:28:35;;;;;;;0.43;0.43;;;7.60;99.90;;;;;;4960199;28;20503;-72
2022/04/25 02:31:02;;;;;;;0.52;0.52;;;7.60;99.90;;;;;;4934283;28;20385;-71
2022/04/25 02:33:27;;;;;;;0.50;0.50;;;7.60;99.90;;;;;;4961974;28;20476;-73
2022/04/25 02:35:54;;;;;;;0.50;0.50;;;7.60;99.90;;;;;;4965092;28;20126;-73
2022/04/25 02:38:20;;;;;;;0.50;0.50;;;7.60;99.90;;;;;;4936787;28;20039;-74
2022/04/25 02:40:46;;;;;;;0.93;0.93;;;7.60;99.90;;;;;;4945627;28;20047;-72
2022/04/25 02:43:11;;;;;;;0.50;0.50;;;7.60;99.90;;;;;;4965773;28;20052;-72
2022/04/25 02:45:37;;;;;;;0.40;0.40;;;7.60;99.90;;;;;;4960746;28;20066;-73
2022/04/25 02:48:03;;;;;;;0.57;0.57;;;7.70;99.90;;;;;;4944178;28;20045;-73
2022/04/25 02:50:29;;;;;;;;;;;7.70;99.90;;;;;;4967918;28;20047;-71
2022/04/25 02:52:54;;;;;;;0.43;0.43;;;7.60;99.90;;;;;;4950582;28;19976;-72
2022/04/25 02:55:20;;;;;;;0.45;0.45;;;7.70;99.90;;;;;;5028515;28;20051;-72
2022/04/25 02:57:46;;;;;;;0.60;0.60;;;7.70;99.90;;;;;;4967562;28;20046;-71
2022/04/25 03:00:13;;;;;;;0.50;0.50;;;7.60;99.90;;;;;;4964089;28;20038;-71
2022/04/25 03:02:38;;;;;;;0.50;0.50;;;7.60;99.90;;;;;;4962025;28;20046;-72
2022/04/25 03:05:05;;;;;;;0.50;0.50;;;7.70;99.90;;;;;;4925715;28;20042;-72
2022/04/25 03:07:31;;;;;;;0.38;0.38;;;7.70;99.90;;;;;;4959835;28;20055;-72
2022/04/25 03:09:56;;;;;;;0.40;0.40;;;7.70;99.90;;;;;;4931445;28;20062;-72
2022/04/25 03:12:22;;;;;;;0.45;0.45;;;7.70;99.90;;;;;;4944455;28;20054;-72
2022/04/25 03:14:48;;;;;;;0.40;0.40;;;7.70;99.90;;;;;;4940365;29;20043;-72
2022/04/25 03:17:14;;;;;;;0.40;0.40;;;7.70;99.90;;;;;;5032916;28;20035;-73
2022/04/25 03:19:39;;;;;;;0.50;0.50;;;7.70;99.90;;;;;;4956324;28;20101;-72
2022/04/25 03:22:05;;;;;;;0.40;0.40;;;7.70;99.90;;;;;;4965480;28;20579;-72
2022/04/25 03:24:31;;;;;;;0.50;0.50;;;7.70;99.90;;;;;;4964118;28;20035;-76
2022/04/25 03:26:57;;;;;;;0.40;0.40;;;7.70;99.90;;;;;;4961014;28;20043;-73
2022/04/25 03:29:23;;;;;;;0.40;0.40;;;7.70;99.90;;;;;;4952573;28;20050;-73
2022/04/25 03:31:49;;;;;;;0.50;0.50;;;7.70;99.90;;;;;;5037393;28;20039;-71
2022/04/25 03:34:15;;;;;;;0.60;0.60;;;7.60;99.90;;;;;;4967339;28;20130;-72
2022/04/25 03:36:44;;;;;;;0.50;0.50;;;7.60;99.90;;;;;;4977679;28;20079;-72
2022/04/25 03:39:10;;;;;;;0.50;0.50;;;7.60;99.90;;;;;;4964011;28;20038;-72
2022/04/25 03:41:36;;;;;;;0.40;0.40;;;7.60;99.90;;;;;;4967231;28;20484;-70
2022/04/25 03:44:03;;;;;;;0.40;0.40;;;7.60;99.90;;;;;;4970200;28;20173;-72
2022/04/25 03:46:30;;;;;;;0.50;0.50;;;7.60;99.90;;;;;;4970305;28;20130;-72
2022/04/25 03:48:56;;;;;;;0.30;0.30;;;7.60;99.90;;;;;;4965113;28;20054;-74
2022/04/25 03:51:22;;;;;;;0.60;0.60;;;7.50;99.90;;;;;;4969396;28;20400;-72
2022/04/25 03:53:48;;;;;;;0.47;0.47;;;7.50;99.90;;;;;;4958988;28;20054;-72
2022/04/25 03:58:59;;;;;;;0.65;0.65;;;7.50;99.90;;;;;;4954033;28;20061;-72
2022/04/25 04:01:25;;;;;;;0.50;0.50;;;7.50;99.90;;;;;;4949676;28;20543;-70
2022/04/25 04:03:51;;;;;;;0.40;0.40;;;7.50;99.90;;;;;;4951640;28;20153;-73
2022/04/25 04:06:17;;;;;;;0.60;0.60;;;7.50;99.90;;;;;;4960895;28;20043;-72
2022/04/25 04:08:43;;;;;;;0.40;0.40;;;7.40;99.90;;;;;;4939252;28;20308;-74
2022/04/25 04:11:09;;;;;;;0.30;0.30;;;7.40;99.90;;;;;;4950081;28;20046;-71
2022/04/25 04:13:35;;;;;;;0.40;0.40;;;7.30;99.90;;;;;;4959907;28;20043;-72
2022/04/25 04:16:01;;;;;;;0.40;0.40;;;7.30;99.90;;;;;;4964149;28;20041;-72
2022/04/25 04:18:27;;;;;;;0.40;0.40;;;7.30;99.90;;;;;;4959635;28;20039;-72
2022/04/25 04:20:53;;;;;;;0.60;0.60;;;7.30;99.90;;;;;;4957052;28;20083;-72
2022/04/25 04:23:19;;;;;;;0.77;0.65;;;7.20;99.90;;;;;;4954287;28;20053;-73
2022/04/25 04:25:45;;;;;;;0.75;0.75;;;7.20;99.90;;;;;;4961292;28;20054;-71
2022/04/25 04:28:11;;;;;;;;;;;7.20;99.90;;;;;;4949527;28;20088;-71
2022/04/25 04:30:36;;;;;;;0.30;0.30;;;7.20;99.90;;;;;;4952771;28;20279;-73
2022/04/25 04:33:02;;;;;;;0.40;0.40;;;7.20;99.90;;;;;;4965236;28;20126;-73
2022/04/25 04:38:12;;;;;;;0.38;0.38;;;7.30;99.90;;;;;;4956317;28;20449;-72
2022/04/25 04:40:38;;;;;;;0.65;0.65;;;7.30;99.90;;;;;;4968557;28;20066;-73
2022/04/25 04:43:04;;;;;;;0.55;0.55;;;7.30;99.90;;;;;;4960910;28;20043;-72
2022/04/25 04:45:30;;;;;;;0.40;0.40;;;7.30;99.90;;;;;;4969136;28;20057;-71
2022/04/25 04:47:56;;;;;;;0.50;0.50;;;7.30;99.90;;;;;;4946297;28;20563;-72
2022/04/25 04:50:22;;;;;;;0.55;0.55;;;7.30;99.90;;;;;;5006533;28;20229;-70
2022/04/25 04:52:50;;;;;;;0.50;0.50;;;7.30;99.90;;;;;;4961449;28;20130;-72
2022/04/25 04:55:16;;;;;;;0.50;0.50;;;7.40;99.90;;;;;;4933630;28;20035;-73
2022/04/25 04:57:42;;;;;;;0.32;0.32;;;7.40;99.90;;;;;;4977309;28;20074;-73
2022/04/25 05:00:10;;;;;;;0.50;0.50;;;7.40;99.90;;;;;;4968666;28;20043;-72
2022/04/25 05:02:36;;;;;;;0.65;0.65;;;7.40;99.90;;;;;;4967883;28;20043;-72
2022/04/25 05:05:02;;;;;;;0.75;0.75;;;7.40;99.90;;;;;;4958949;28;20108;-72
2022/04/25 05:07:28;;;;;;;0.40;0.40;;;7.40;99.90;;;;;;4960884;28;20113;-72
2022/04/25 05:09:54;;;;;;;0.40;0.40;;;7.40;99.90;;;;;;4954868;28;20051;-73
2022/04/25 05:12:20;;;;;;;0.40;0.40;;;7.50;99.90;;;;;;5031345;28;20129;-72
2022/04/25 05:14:46;;;;;;;0.60;0.60;;;7.50;99.90;;;;;;4937470;28;20422;-73
2022/04/25 05:17:12;;;;;;;0.50;0.50;;;7.50;99.90;;;;;;4960784;28;20043;-71
2022/04/25 05:19:38;;;;;;;0.40;0.40;;;7.40;99.90;;;;;;4968374;28;20035;-72
2022/04/25 05:22:03;;;;;;;0.50;0.50;;;7.50;99.90;;;;;;4951649;28;20072;-73
2022/04/25 05:24:29;;;;;;;0.60;0.60;;;7.50;99.90;;;;;;4964852;28;20571;-71
2022/04/25 05:26:55;;;;;;;0.63;0.63;;;7.50;99.90;;;;;;4971501;28;20046;-73
2022/04/25 05:29:21;;;;;;;0.70;0.70;;;7.50;99.90;;;;;;4949713;28;20074;-72
2022/04/25 05:31:49;;;;;;;0.68;0.68;;;7.50;99.90;;;;;;4973726;28;20122;-74
2022/04/25 05:34:15;;;;;;;0.60;0.60;;;7.50;99.90;;;;;;4955370;28;20341;-71
2022/04/25 05:36:41;;;;;;;0.60;0.60;;;7.50;99.90;;;;;;4966071;28;20074;-72
2022/04/25 05:39:08;;;;;;;0.40;0.40;;;7.50;99.90;;;;;;4942878;28;20043;-72
2022/04/25 05:41:36;;;;;;;0.43;0.43;;;7.50;99.90;;;;;;5006311;28;20070;-71
2022/04/25 05:44:03;;;;;;;0.50;0.50;;;7.60;99.90;;;;;;4967270;28;20049;-72
2022/04/25 05:46:29;;;;;;;0.43;0.43;;;7.50;99.90;;;;;;4978768;28;20058;-72
2022/04/25 05:54:23;;;;;;;0.68;0.68;;;7.70;99.90;;;;;;4962557;28;20085;-71
2022/04/25 05:56:50;;;;;;;1.30;1.30;;;7.70;99.90;;;;;;4935496;28;20039;-75
2022/04/25 05:59:16;;;;;;;0.45;0.45;;;7.70;99.90;;;;;;4981928;28;20096;-76
2022/04/25 06:01:42;;;;;;;0.30;0.30;;;7.80;99.90;;;;;;4966502;28;20476;-74
2022/04/25 06:04:08;;;;;;;0.40;0.40;;;7.70;99.90;;;;;;4990618;28;20098;-75
2022/04/25 06:06:34;;;;;;;0.40;0.40;;;7.80;99.90;;;;;;4961910;28;20035;-76
2022/04/25 06:09:00;;;;;;;0.52;0.52;;;7.80;99.90;;;;;;4953877;28;20095;-77
2022/04/25 06:11:26;;;;;;;1.65;0.55;;;8.00;99.90;;;;;;4921398;28;20061;-76
2022/04/25 06:13:53;;;;;;;0.60;0.60;;;8.00;99.90;;;;;;4961273;28;20043;-75
2022/04/25 06:16:19;;;;;;;0.30;0.30;;;8.00;99.90;;;;;;4952380;28;20977;-74
2022/04/25 06:18:44;;;;;;;0.50;0.50;;;8.00;99.90;;;;;;4966680;28;20050;-76
2022/04/25 06:21:10;;;;;;;0.40;0.40;;;8.10;99.90;;;;;;4978172;28;20050;-73
2022/04/25 06:23:36;;;;;;;0.40;0.40;;;8.20;99.90;;;;;;4951548;28;20051;-75
2022/04/25 06:26:01;;;;;;;0.40;0.40;;;8.20;99.90;;;;;;4963962;28;20047;-73
2022/04/25 06:28:29;;;;;;;0.50;0.50;;;8.30;99.90;;;;;;4963177;28;20086;-77
2022/04/25 06:30:54;;;;;;;0.63;0.63;;;8.30;99.90;;;;;;5034724;28;20055;-76
2022/04/25 06:33:20;;;;;;;0.45;0.45;;;8.40;99.90;;;;;;4967703;28;20472;-75
2022/04/25 06:35:46;;;;;;;0.60;0.60;;;8.40;99.90;;;;;;4969112;28;20505;-75
2022/04/25 06:38:12;;;;;;;0.40;0.40;;;8.30;99.90;;;;;;4967707;28;20039;-75
2022/04/25 06:40:38;;;;;;;0.50;0.50;;;8.30;99.90;;;;;;4980084;28;20031;-77
2022/04/25 06:43:04;;;;;;;0.35;0.35;;;8.30;99.90;;;;;;4942835;28;20051;-76
2022/04/25 06:45:30;;;;;;;0.57;0.57;;;8.30;99.90;;;;;;4945158;28;20046;-76
2022/04/25 06:47:56;;;;;;;;;;;8.20;99.90;;;;;;4976102;28;20043;-73
2022/04/25 06:50:22;;;;;;;0.60;0.60;;;8.20;99.90;;;;;;4958678;28;19925;-72
2022/04/25 06:52:48;;;;;;;;;;;8.20;99.90;;;;;;4968239;28;20093;-74
2022/04/25 06:55:13;;;;;;;0.40;0.40;;;8.20;99.90;;;;;;4954836;28;19975;-75
2022/04/25 06:57:39;;;;;;;0.43;0.43;;;8.20;99.90;;;;;;4968685;28;20143;-72
2022/04/25 07:00:08;;;;;;;0.40;0.40;;;8.30;99.90;;;;;;4969970;28;20141;-72
2022/04/25 07:02:35;;;;;;;0.40;0.40;;;8.30;99.90;;;;;;4964245;28;20052;-73
2022/04/25 07:05:01;;;;;;;0.30;0.30;;;8.30;99.90;;;;;;4970436;28;20800;-76
2022/04/25 07:07:27;;;;;;;0.38;0.38;;;8.40;99.90;;;;;;4975912;28;20046;-73
2022/04/25 07:09:52;;;;;;;0.55;0.55;;;8.50;99.90;;;;;;4970163;28;20524;-74
2022/04/25 07:12:18;;;;;;;0.40;0.40;;;8.60;99.90;;;;;;4970077;28;20297;-72
2022/04/25 07:14:44;;;;;;;0.50;0.50;;;8.60;99.90;;;;;;4971061;28;20093;-71
2022/04/25 07:17:09;;;;;;;0.30;0.30;;;8.80;99.90;;;;;;4970716;28;20480;-70
2022/04/25 07:19:39;;;;;;;0.38;0.38;;;9.00;99.90;;;;;;4954758;28;20054;-73
2022/04/25 07:30:22;;;;;;;0.40;0.40;;;8.90;99.90;;;;;;4968114;28;20480;-73
2022/04/25 07:32:48;;;;;;;0.47;0.47;;;8.90;99.90;;;;;;4952144;28;20078;-73
2022/04/25 07:35:14;;;;;;;0.50;0.50;;;8.90;99.90;;;;;;4940357;28;20035;-72
2022/04/25 07:37:40;;;;;;;0.50;0.50;;;8.80;99.90;;;;;;4954358;28;20043;-72
2022/04/25 07:40:08;;;;;;;0.30;0.30;;;8.80;99.90;;;;;;4967553;28;20077;-72
2022/04/25 07:42:40;;;;;;;0.50;0.50;;;8.70;99.90;;;;;;4964180;28;20121;-72
2022/04/25 07:45:07;;;;;;;0.35;0.35;;;8.70;99.90;;;;;;4969712;28;20053;-73
2022/04/25 07:47:34;;;;;;;0.47;0.47;;;8.70;99.90;;;;;;4953903;28;20072;-74
2022/04/25 07:50:01;;;;;;;0.40;0.40;;;8.70;99.90;;;;;;4969531;28;20088;-72
2022/04/25 07:52:27;;;;;;;0.50;0.50;;;8.70;99.90;;;;;;4962705;28;20043;-73
2022/04/25 07:54:55;;;;;;;0.50;0.50;;;8.70;99.90;;;;;;4948048;28;20039;-71
2022/04/25 07:57:20;;;;;;;0.60;0.60;;;8.80;99.90;;;;;;5031420;28;20104;-74
2022/04/25 07:59:47;;;;;;;0.65;0.65;;;8.80;99.90;;;;;;4958567;28;20488;-74
2022/04/25 08:02:13;;;;;;;1.23;1.15;;;8.90;99.90;;;;;;4966041;28;20130;-74
2022/04/25 08:04:39;;;;;;;0.88;0.88;;;9.10;99.90;;;;;;4961798;28;20549;-75
2022/04/25 08:07:05;;;;;;;0.30;0.30;;;9.30;99.90;;;;;;4967508;28;20079;-73
2022/04/25 08:09:30;;;;;;;;;;;9.40;99.90;;;;;;4958086;28;20063;-71
2022/04/25 08:20:13;;;;;;;0.40;0.40;;;9.80;99.90;;;;;;5013931;28;20052;-73
2022/04/25 08:22:39;;;;;;;0.50;0.50;;;9.80;99.90;;;;;;4963397;28;20050;-74
2022/04/25 08:25:07;;;;;;;0.30;0.30;;;9.80;99.90;;;;;;4965727;28;20047;-73
2022/04/25 08:27:33;;;;;;;0.40;0.40;;;9.70;99.90;;;;;;4952983;28;20552;-73
2022/04/25 08:29:59;;;;;;;0.50;0.50;;;9.80;99.90;;;;;;4969449;28;20050;-73
2022/04/25 08:32:25;;;;;;;0.40;0.40;;;9.80;99.90;;;;;;4961783;28;20078;-72
2022/04/25 08:34:51;;;;;;;0.90;0.90;;;9.90;99.90;;;;;;4985300;28;20047;-72
2022/04/25 08:37:17;;;;;;;0.30;0.30;;;10.00;99.90;;;;;;4969023;28;20042;-73
2022/04/25 08:39:43;;;;;;;0.45;0.45;;;10.20;99.90;;;;;;4959368;28;20547;-73
2022/04/25 08:42:09;;;;;;;0.30;0.30;;;10.40;99.90;;;;;;4975363;28;20045;-73
2022/04/25 08:44:37;;;;;;;0.50;0.50;;;10.70;99.90;;;;;;4948954;28;20119;-76
2022/04/25 08:47:05;;;;;;;0.52;0.52;;;10.90;99.90;;;;;;4968717;28;20861;-74
2022/04/25 08:49:31;;;;;;;0.30;0.30;;;11.00;99.90;;;;;;4969162;28;20058;-72
2022/04/25 08:52:00;;;;;;;0.68;0.68;;;11.20;99.90;;;;;;4965561;28;20041;-72
2022/04/25 08:54:31;;;;;;;0.50;0.50;;;11.00;99.90;;;;;;4962912;28;20054;-74
2022/04/25 08:56:58;;;;;;;0.65;0.65;;;10.90;99.90;;;;;;4968154;28;20049;-74
2022/04/25 08:59:25;;;;;;;0.50;0.50;;;11.10;99.90;;;;;;4968481;28;20439;-73
2022/04/25 09:01:51;;;;;;;0.40;0.40;;;11.30;99.90;;;;;;4963016;28;20045;-72
2022/04/25 09:04:17;;;;;;;0.38;0.38;;;11.40;99.90;;;;;;4961733;28;20051;-73
2022/04/25 09:06:43;;;;;;;0.40;0.40;;;11.60;99.90;;;;;;4945601;28;20042;-73
2022/04/25 09:09:09;;;;;;;0.30;0.30;;;11.80;99.90;;;;;;4968034;28;20141;-72
2022/04/25 09:14:21;;;;;;;0.38;0.38;;;11.90;99.90;;;;;;4969582;28;20054;-73
2022/04/25 09:16:47;;;;;;;0.30;0.30;;;11.90;99.90;;;;;;4974109;28;20521;-74
2022/04/25 09:19:14;;;;;;;0.50;0.50;;;11.80;99.90;;;;;;4958288;28;20491;-72
2022/04/25 09:21:42;;;;;;;0.50;0.50;;;11.90;99.90;;;;;;4968756;28;20042;-71
2022/04/25 09:24:24;;;;;;;0.22;0.22;;;11.80;99.90;;;;;;4965725;28;20046;-72
2022/04/25 09:27:09;;;;;;;0.40;0.40;;;11.60;99.90;;;;;;4969391;28;20076;-70
2022/04/25 09:29:36;;;;;;;0.25;0.25;;;11.50;99.90;;;;;;4960823;28;20035;-74
2022/04/25 09:32:06;;;;;;;0.40;0.40;;;11.40;99.90;;;;;;4967460;28;20050;-73
2022/04/25 09:37:18;;;;;;;0.35;0.35;;;11.60;99.90;;;;;;4957691;28;20054;-74
2022/04/25 09:39:44;;;;;;;0.40;0.40;;;11.90;99.90;;;;;;4961970;28;20089;-74
2022/04/25 09:42:10;;;;;;;;;;;11.90;99.90;;;;;;4964195;28;20058;-75
2022/04/25 09:44:57;;;;;;;0.40;0.40;;;12.10;99.90;;;;;;4968677;28;19922;-74
2022/04/25 09:47:30;;;;;;;0.40;0.40;;;12.30;99.90;;;;;;4967833;28;20051;-74
2022/04/25 09:50:04;;;;;;;0.82;0.82;;;12.40;99.90;;;;;;4952820;28;20047;-73
2022/04/25 09:52:31;;;;;;;0.30;0.30;;;12.40;99.90;;;;;;4967481;28;20555;-73
2022/04/25 09:55:14;;;;;;;0.50;0.50;;;12.60;99.90;;;;;;4942913;29;20039;-74
2022/04/25 09:57:41;;;;;;;0.50;0.50;;;12.80;99.90;;;;;;4950483;28;20039;-72
2022/04/25 10:00:07;;;;;;;0.50;0.50;;;12.90;99.90;;;;;;4972082;28;20396;-76
2022/04/25 10:02:40;;;;;;;0.45;0.45;;;13.10;99.90;;;;;;4969491;28;20387;-73
2022/04/25 10:05:14;;;;;;;0.50;0.50;;;13.40;99.90;;;;;;4951795;28;20116;-73
2022/04/25 10:07:41;;;;;;;0.40;0.40;;;13.60;99.90;;;;;;4955424;28;20081;-72
2022/04/25 10:10:13;;;;;;;0.40;0.40;;;13.70;99.90;;;;;;4956035;28;20085;-73
2022/04/25 10:12:39;;;;;;;0.40;0.40;;;14.00;99.90;;;;;;4965579;28;20456;-73
2022/04/25 10:15:09;;;;;;;0.40;0.40;;;14.20;99.90;;;;;;4952087;28;20070;-71
2022/04/25 10:17:38;;;;;;;0.20;0.20;;;14.50;99.90;;;;;;4966945;28;20488;-72
2022/04/25 10:20:05;;;;;;;0.30;0.30;;;14.70;99.90;;;;;;4968494;28;20100;-72
2022/04/25 10:22:31;;;;;;;0.30;0.30;;;15.00;99.90;;;;;;4954760;28;20138;-73
2022/04/25 10:24:57;;;;;;;0.30;0.30;;;14.80;99.90;;;;;;4945014;28;20644;-73
2022/04/25 10:27:27;;;;;;;;;;;14.60;99.90;;;;;;4958801;28;20706;-71
2022/04/25 10:29:56;;;;;;;0.32;0.32;;;14.50;99.90;;;;;;4967232;28;19968;-71
2022/04/25 10:32:23;;;;;;;0.40;0.40;;;14.30;99.90;;;;;;4956595;28;20081;-74
2022/04/25 10:35:00;;;;;;;0.35;0.35;;;14.00;99.90;;;;;;4971262;28;20062;-73
2022/04/25 10:37:40;;;;;;;0.35;0.35;;;13.80;99.90;;;;;;4970973;28;20183;-73
2022/04/25 10:40:07;;;;;;;0.47;0.47;;;13.60;99.90;;;;;;4986394;28;20047;-71
2022/04/25 10:45:53;;;;;;;0.40;0.40;;;13.50;99.90;;;;;;4969668;28;20173;-75
2022/04/25 10:48:18;;;;;;;0.30;0.30;;;13.60;99.90;;;;;;4970713;28;20454;-74
2022/04/25 10:51:07;;;;;;;0.85;0.85;;;13.60;99.90;;;;;;4955008;28;20057;-73
2022/04/25 10:53:59;;;;;;;0.20;0.20;;;13.60;99.90;;;;;;4941973;28;20517;-74
2022/04/25 10:56:27;;;;;;;0.35;0.35;;;13.60;99.90;;;;;;4962433;28;20464;-72
2022/04/25 10:59:25;;;;;;;0.40;0.40;;;13.70;99.90;;;;;;4980235;28;20506;-73
2022/04/25 11:01:53;;;;;;;0.30;0.30;;;13.90;99.90;;;;;;4965332;28;20035;-71
2022/04/25 11:04:20;;;;;;;0.30;0.30;;;14.00;99.90;;;;;;4970375;28;20089;-72
2022/04/25 11:06:47;;;;;;;0.40;0.40;;;14.00;99.90;;;;;;4970479;28;20043;-73
2022/04/25 11:09:37;;;;;;;0.38;0.38;;;14.00;99.90;;;;;;4985704;28;20379;-73
2022/04/25 11:12:04;;;;;;;1.08;0.95;;;13.90;99.90;;;;;;4969758;28;20062;-72
2022/04/25 11:14:30;;;;;;;;;;;13.80;99.90;;;;;;4970858;28;20472;-73
2022/04/25 11:17:07;;;;;;;0.40;0.40;;;13.80;99.90;;;;;;4957714;28;19919;-72
2022/04/25 11:19:51;;;;;;;0.40;0.40;;;13.70;99.90;;;;;;4962056;28;20035;-73
2022/04/25 11:22:31;;;;;;;0.40;0.40;;;13.70;99.90;;;;;;4955633;28;20208;-72
2022/04/25 11:25:26;;;;;;;0.20;0.20;;;13.80;99.90;;;;;;4950947;28;20078;-71
2022/04/25 11:28:05;;;;;;;0.40;0.40;;;13.80;99.90;;;;;;4966134;28;20039;-73
2022/04/25 11:30:31;;;;;;;0.30;0.30;;;13.80;99.90;;;;;;4952124;28;20053;-73
2022/04/25 11:33:26;;;;;;;0.40;0.40;;;13.60;99.90;;;;;;4970696;28;20387;-73
2022/04/25 11:35:59;;;;;;;0.40;0.40;;;13.50;99.90;;;;;;4979145;28;20050;-75
2022/04/25 11:39:50;;;;;;;0.30;0.30;;;13.50;99.90;;;;;;4971455;28;20078;-71
2022/04/25 11:41:12;;;;;;;0.30;0.30;;;13.50;99.90;;;;;;4970328;28;20680;-73
2022/04/25 11:43:38;;;;;;;0.50;0.50;;;13.50;99.90;;;;;;4952477;28;20043;-73
2022/04/25 11:46:05;;;;;;;0.40;0.40;;;13.40;99.90;;;;;;4953258;28;20049;-74
2022/04/25 11:48:30;;;;;;;0.22;0.22;;;13.40;99.90;;;;;;4973564;28;20472;-72
2022/04/25 11:50:56;;;;;;;0.30;0.30;;;13.40;99.90;;;;;;4969703;28;20051;-72
2022/04/25 11:53:33;;;;;;;0.40;0.40;;;13.40;99.90;;;;;;4969139;28;20066;-71
2022/04/25 11:56:01;;;;;;;0.63;0.63;;;13.40;99.90;;;;;;4956829;28;20072;-74
2022/04/25 11:58:30;;;;;;;0.57;0.57;;;13.30;99.90;;;;;;4952579;28;20078;-72
2022/04/25 12:00:56;;;;;;;0.60;0.60;;;13.20;99.90;;;;;;4964436;28;20045;-72
2022/04/25 12:03:24;;;;;;;0.30;0.30;;;13.30;99.90;;;;;;4966559;28;20403;-73
2022/04/25 12:05:50;;;;;;;0.60;0.60;;;13.30;99.90;;;;;;4957666;28;20484;-75
2022/04/25 12:16:38;;;;;;;0.30;0.30;;;13.30;99.90;;;;;;4964471;28;20057;-71
2022/04/25 12:19:07;;;;;;;0.32;0.32;;;13.20;99.90;;;;;;4961734;28;20047;-72
2022/04/25 12:21:34;;;;;;;0.32;0.32;;;13.20;99.90;;;;;;4953166;28;20440;-74
2022/04/25 12:24:00;;;;;;;0.73;0.52;;;13.20;99.90;;;;;;4969657;28;20552;-74
2022/04/25 12:26:29;;;;;;;0.80;0.65;;;13.10;99.90;;;;;;4964286;28;20126;-71
2022/04/25 12:29:06;;;;;;;0.30;0.30;;;13.10;99.90;;;;;;4967141;28;20047;-73
2022/04/25 12:31:47;;;;;;;0.47;0.47;;;13.20;99.90;;;;;;4968326;28;20046;-72
2022/04/25 12:34:16;;;;;;;0.25;0.25;;;13.50;99.90;;;;;;4969610;28;20047;-72
2022/04/25 12:36:58;;;;;;;0.50;0.50;;;13.90;99.90;;;;;;4967065;28;20388;-72
2022/04/25 12:39:27;;;;;;;0.40;0.40;;;14.40;99.90;;;;;;4958029;28;20076;-72
2022/04/25 12:41:59;;;;;;;0.30;0.30;;;15.10;99.90;;;;;;4955163;28;20534;-74
2022/04/25 12:44:28;;;;;;;0.65;0.65;;;15.10;99.90;;;;;;4969238;28;20054;-72
2022/04/25 12:47:05;;;;;;;0.63;0.63;;;14.80;99.90;;;;;;4970280;28;20392;-71
2022/04/25 12:49:47;;;;;;;1.27;0.60;;;14.40;99.90;;;;;;4975459;28;20054;-75
2022/04/25 12:52:14;;;;;;;0.60;0.60;;;14.20;99.90;;;;;;4947865;28;20053;-73
2022/04/25 12:54:43;;;;;;;0.38;0.38;;;14.00;99.90;;;;;;4943521;28;20066;-73
2022/04/25 12:57:13;;;;;;;0.63;0.63;;;14.00;99.90;;;;;;4955184;28;20043;-72
2022/04/25 12:59:40;;;;;;;0.30;0.30;;;14.00;99.90;;;;;;4983790;28;20125;-74
2022/04/25 13:02:09;;;;;;;0.63;0.63;;;14.10;99.90;;;;;;4966666;28;20521;-74
2022/04/25 13:04:57;;;;;;;0.40;0.40;;;14.20;99.90;;;;;;4954265;28;20102;-72
2022/04/25 13:07:28;;;;;;;0.47;0.47;;;14.80;99.90;;;;;;4958537;28;20038;-70
2022/04/25 13:09:56;;;;;;;0.32;0.32;;;15.20;99.90;;;;;;4983397;28;20365;-67
2022/04/25 13:12:24;;;;;;;0.30;0.30;;;15.80;99.90;;;;;;4954736;28;20114;-69
2022/04/25 13:14:50;;;;;;;0.50;0.50;;;16.20;99.90;;;;;;4968217;28;20047;-69
2022/04/25 13:17:16;;;;;;;;;;;16.30;99.90;;;;;;4956191;28;20069;-68
2022/04/25 13:19:43;;;;;;;0.40;0.40;;;16.20;99.90;;;;;;4967790;28;20367;-69
2022/04/25 13:22:09;;;;;;;0.20;0.20;;;16.40;99.90;;;;;;4966567;28;20478;-69
2022/04/25 13:24:35;;;;;;;0.55;0.55;;;16.60;99.90;;;;;;4980299;28;20468;-71
2022/04/25 13:27:03;;;;;;;0.40;0.40;;;16.90;99.90;;;;;;4966709;28;20495;-70
2022/04/25 13:29:28;;;;;;;0.20;0.20;;;16.90;99.90;;;;;;4982498;28;20136;-68
2022/04/25 13:31:54;;;;;;;0.40;0.40;;;16.90;99.90;;;;;;4968361;28;20082;-67
2022/04/25 13:34:20;;;;;;;0.40;0.40;;;17.00;99.90;;;;;;4965851;28;20418;-68
2022/04/25 13:36:45;;;;;;;0.82;0.82;;;17.10;99.90;;;;;;4968562;28;20043;-70
2022/04/25 13:39:11;;;;;;;0.80;0.80;;;17.10;99.90;;;;;;4955574;28;20380;-72
2022/04/25 13:41:37;;;;;;;;;;;17.00;99.90;;;;;;4966665;28;20368;-70
2022/04/25 13:44:04;;;;;;;0.40;0.40;;;16.90;99.90;;;;;;4965129;28;19979;-71
2022/04/25 13:46:31;;;;;;;0.57;0.40;;;16.90;99.90;;;;;;4976628;28;20070;-69
2022/04/25 13:48:57;;;;;;;0.40;0.40;;;16.80;99.90;;;;;;4964332;28;20096;-67